sensor_id;sensor_type;location;lat;lon;timestamp;temperature;humidity
38860;DHT22;24609;48.316;16.174;2022-11-13T00:01:56;2.00;99.90
38860;DHT22;24609;48.316;16.174;2022-11-13T00:04:22;1.90;99.90
38860;DHT22;24609;48.316;16.174;2022-11-13T00:06:48;1.90;99.90
38860;DHT22;24609;48.316;16.174;2022-11-13T00:09:13;1.90;99.90
38860;DHT22;24609;48.316;16.174;2022-11-13T00:11:39;1.80;99.90
38860;DHT22;24609;48.316;16.174;2022-11-13T00:14:05;1.70;99.90
38860;DHT22;24609;48.316;16.174;2022-11-13T00:16:30;1.80;99.90
38860;DHT22;24609;48.316;16.174;2022-11-13T00:18:56;1.80;99.90
38860;DHT22;24609;48.316;16.174;2022-11-13T00:21:24;1.80;99.90
38860;DHT22;24609;48.316;16.174;2022-11-13T00:23:52;1.90;99.90
38860;DHT22;24609;48.316;16.174;2022-11-13T00:26:20;1.80;99.90
38860;DHT22;24609;48.316;16.174;2022-11-13T00:28:50;1.80;99.90
38860;DHT22;24609;48.316;16.174;2022-11-13T00:31:16;1.90;99.90
38860;DHT22;24609;48.316;16.174;2022-11-13T00:33:42;1.90;99.90
38860;DHT22;24609;48.316;16.174;2022-11-13T00:36:11;1.90;99.90
38860;DHT22;24609;48.316;16.174;2022-11-13T00:38:38;1.90;99.90
38860;DHT22;24609;48.316;16.174;2022-11-13T00:41:04;2.00;99.90
38860;DHT22;24609;48.316;16.174;2022-11-13T00:43:30;2.00;99.90
38860;DHT22;24609;48.316;16.174;2022-11-13T00:45:55;1.90;99.90
38860;DHT22;24609;48.316;16.174;2022-11-13T00:48:21;2.00;99.90
38860;DHT22;24609;48.316;16.174;2022-11-13T00:50:47;2.10;99.90
38860;DHT22;24609;48.316;16.174;2022-11-13T00:53:13;2.10;99.90
38860;DHT22;24609;48.316;16.174;2022-11-13T00:55:39;2.10;99.90
38860;DHT22;24609;48.316;16.174;2022-11-13T00:58:04;2.20;99.90
38860;DHT22;24609;48.316;16.174;2022-11-13T01:00:31;2.20;99.90
38860;DHT22;24609;48.316;16.174;2022-11-13T01:02:58;2.20;99.90
38860;DHT22;24609;48.316;16.174;2022-11-13T01:05:24;2.20;99.90
38860;DHT22;24609;48.316;16.174;2022-11-13T01:07:50;2.20;99.90
38860;DHT22;24609;48.316;16.174;2022-11-13T01:10:15;2.20;99.90
38860;DHT22;24609;48.316;16.174;2022-11-13T01:12:41;2.20;99.90
38860;DHT22;24609;48.316;16.174;2022-11-13T01:15:07;2.20;99.90
38860;DHT22;24609;48.316;16.174;2022-11-13T01:17:33;2.20;99.90
38860;DHT22;24609;48.316;16.174;2022-11-13T01:19:58;2.20;99.90
38860;DHT22;24609;48.316;16.174;2022-11-13T01:22:24;2.30;99.90
38860;DHT22;24609;48.316;16.174;2022-11-13T01:24:50;2.20;99.90
38860;DHT22;24609;48.316;16.174;2022-11-13T01:27:16;2.20;99.90
38860;DHT22;24609;48.316;16.174;2022-11-13T01:29:42;2.20;99.90
38860;DHT22;24609;48.316;16.174;2022-11-13T01:32:07;2.10;99.90
38860;DHT22;24609;48.316;16.174;2022-11-13T01:34:33;2.10;99.90
38860;DHT22;24609;48.316;16.174;2022-11-13T01:36:59;2.00;99.90
38860;DHT22;24609;48.316;16.174;2022-11-13T01:39:25;2.00;99.90
38860;DHT22;24609;48.316;16.174;2022-11-13T01:41:50;1.80;99.90
38860;DHT22;24609;48.316;16.174;2022-11-13T01:44:17;1.70;99.90
38860;DHT22;24609;48.316;16.174;2022-11-13T01:46:46;1.60;99.90
38860;DHT22;24609;48.316;16.174;2022-11-13T01:49:24;1.50;99.90
38860;DHT22;24609;48.316;16.174;2022-11-13T01:52:00;1.50;99.90
38860;DHT22;24609;48.316;16.174;2022-11-13T01:54:30;1.50;99.90
38860;DHT22;24609;48.316;16.174;2022-11-13T01:56:56;1.60;99.90
38860;DHT22;24609;48.316;16.174;2022-11-13T01:59:28;1.80;99.90
38860;DHT22;24609;48.316;16.174;2022-11-13T02:01:55;2.10;99.90
38860;DHT22;24609;48.316;16.174;2022-11-13T02:04:22;2.30;99.90
38860;DHT22;24609;48.316;16.174;2022-11-13T02:06:54;2.50;99.90
38860;DHT22;24609;48.316;16.174;2022-11-13T02:09:28;2.70;99.90
38860;DHT22;24609;48.316;16.174;2022-11-13T02:11:55;2.80;99.90
38860;DHT22;24609;48.316;16.174;2022-11-13T02:14:23;2.90;99.90
38860;DHT22;24609;48.316;16.174;2022-11-13T02:16:52;2.90;99.90
38860;DHT22;24609;48.316;16.174;2022-11-13T02:19:25;3.00;99.90
38860;DHT22;24609;48.316;16.174;2022-11-13T02:21:56;3.10;99.90
38860;DHT22;24609;48.316;16.174;2022-11-13T02:24:37;3.10;99.90
38860;DHT22;24609;48.316;16.174;2022-11-13T02:27:06;3.10;99.90
38860;DHT22;24609;48.316;16.174;2022-11-13T02:29:32;3.20;99.90
38860;DHT22;24609;48.316;16.174;2022-11-13T02:31:58;3.10;99.90
38860;DHT22;24609;48.316;16.174;2022-11-13T02:34:24;3.20;99.90
38860;DHT22;24609;48.316;16.174;2022-11-13T02:36:50;3.30;99.90
38860;DHT22;24609;48.316;16.174;2022-11-13T02:39:16;3.40;99.90
38860;DHT22;24609;48.316;16.174;2022-11-13T02:41:41;3.70;99.90
38860;DHT22;24609;48.316;16.174;2022-11-13T02:44:07;3.80;99.90
38860;DHT22;24609;48.316;16.174;2022-11-13T02:46:33;4.00;99.90
38860;DHT22;24609;48.316;16.174;2022-11-13T02:48:59;4.20;99.90
38860;DHT22;24609;48.316;16.174;2022-11-13T02:51:25;4.20;99.90
38860;DHT22;24609;48.316;16.174;2022-11-13T02:53:51;4.30;99.90
38860;DHT22;24609;48.316;16.174;2022-11-13T02:56:16;4.40;99.90
38860;DHT22;24609;48.316;16.174;2022-11-13T02:58:42;4.60;99.90
38860;DHT22;24609;48.316;16.174;2022-11-13T03:01:08;4.70;99.90
38860;DHT22;24609;48.316;16.174;2022-11-13T03:03:34;4.70;99.90
38860;DHT22;24609;48.316;16.174;2022-11-13T03:06:00;4.80;99.90
38860;DHT22;24609;48.316;16.174;2022-11-13T03:08:26;4.80;99.90
38860;DHT22;24609;48.316;16.174;2022-11-13T03:10:53;4.90;99.90
38860;DHT22;24609;48.316;16.174;2022-11-13T03:13:18;4.80;99.90
38860;DHT22;24609;48.316;16.174;2022-11-13T03:15:44;4.80;99.90
38860;DHT22;24609;48.316;16.174;2022-11-13T03:18:10;4.80;99.90
38860;DHT22;24609;48.316;16.174;2022-11-13T03:20:38;4.70;99.90
38860;DHT22;24609;48.316;16.174;2022-11-13T03:23:04;4.70;99.90
38860;DHT22;24609;48.316;16.174;2022-11-13T03:25:31;4.50;99.90
38860;DHT22;24609;48.316;16.174;2022-11-13T03:27:57;4.50;99.90
38860;DHT22;24609;48.316;16.174;2022-11-13T03:30:23;4.50;99.90
38860;DHT22;24609;48.316;16.174;2022-11-13T03:32:55;4.50;99.90
38860;DHT22;24609;48.316;16.174;2022-11-13T03:35:22;4.50;99.90
38860;DHT22;24609;48.316;16.174;2022-11-13T03:37:48;4.60;99.90
38860;DHT22;24609;48.316;16.174;2022-11-13T03:40:14;4.50;99.90
38860;DHT22;24609;48.316;16.174;2022-11-13T03:42:40;4.50;99.90
38860;DHT22;24609;48.316;16.174;2022-11-13T03:45:05;4.50;99.90
38860;DHT22;24609;48.316;16.174;2022-11-13T03:47:31;4.50;99.90
38860;DHT22;24609;48.316;16.174;2022-11-13T03:49:57;4.40;99.90
38860;DHT22;24609;48.316;16.174;2022-11-13T03:52:22;4.40;99.90
38860;DHT22;24609;48.316;16.174;2022-11-13T03:54:48;4.40;99.90
38860;DHT22;24609;48.316;16.174;2022-11-13T03:57:14;4.30;99.90
38860;DHT22;24609;48.316;16.174;2022-11-13T03:59:40;4.40;99.90
38860;DHT22;24609;48.316;16.174;2022-11-13T04:02:05;4.40;99.90
38860;DHT22;24609;48.316;16.174;2022-11-13T04:04:31;4.50;99.90
38860;DHT22;24609;48.316;16.174;2022-11-13T04:06:57;4.40;99.90
38860;DHT22;24609;48.316;16.174;2022-11-13T04:09:23;4.40;99.90
38860;DHT22;24609;48.316;16.174;2022-11-13T04:11:49;4.50;99.90
38860;DHT22;24609;48.316;16.174;2022-11-13T04:14:15;4.60;99.90
38860;DHT22;24609;48.316;16.174;2022-11-13T04:16:41;4.60;99.90
38860;DHT22;24609;48.316;16.174;2022-11-13T04:19:06;4.70;99.90
38860;DHT22;24609;48.316;16.174;2022-11-13T04:21:32;4.70;99.90
38860;DHT22;24609;48.316;16.174;2022-11-13T04:23:57;4.70;99.90
38860;DHT22;24609;48.316;16.174;2022-11-13T04:26:23;4.80;99.90
38860;DHT22;24609;48.316;16.174;2022-11-13T04:28:49;4.80;99.90
38860;DHT22;24609;48.316;16.174;2022-11-13T04:31:14;4.90;99.90
38860;DHT22;24609;48.316;16.174;2022-11-13T04:33:40;4.80;99.90
38860;DHT22;24609;48.316;16.174;2022-11-13T04:36:06;4.90;99.90
38860;DHT22;24609;48.316;16.174;2022-11-13T04:38:32;4.90;99.90
38860;DHT22;24609;48.316;16.174;2022-11-13T04:40:57;5.00;99.90
38860;DHT22;24609;48.316;16.174;2022-11-13T04:43:42;5.10;99.90
38860;DHT22;24609;48.316;16.174;2022-11-13T04:46:07;5.10;99.90
38860;DHT22;24609;48.316;16.174;2022-11-13T04:48:33;5.20;99.90
38860;DHT22;24609;48.316;16.174;2022-11-13T04:50:59;5.30;99.90
38860;DHT22;24609;48.316;16.174;2022-11-13T04:53:25;5.30;99.90
38860;DHT22;24609;48.316;16.174;2022-11-13T04:55:53;5.30;99.90
38860;DHT22;24609;48.316;16.174;2022-11-13T04:58:19;5.40;99.90
38860;DHT22;24609;48.316;16.174;2022-11-13T05:00:45;5.40;99.90
38860;DHT22;24609;48.316;16.174;2022-11-13T05:03:10;5.30;99.90
38860;DHT22;24609;48.316;16.174;2022-11-13T05:05:36;5.30;99.90
38860;DHT22;24609;48.316;16.174;2022-11-13T05:08:01;5.30;99.90
38860;DHT22;24609;48.316;16.174;2022-11-13T05:10:27;5.30;99.90
38860;DHT22;24609;48.316;16.174;2022-11-13T05:12:55;5.30;99.90
38860;DHT22;24609;48.316;16.174;2022-11-13T05:15:21;5.30;99.90
38860;DHT22;24609;48.316;16.174;2022-11-13T05:17:49;5.30;99.90
38860;DHT22;24609;48.316;16.174;2022-11-13T05:20:15;5.30;99.90
38860;DHT22;24609;48.316;16.174;2022-11-13T05:22:41;5.20;99.90
38860;DHT22;24609;48.316;16.174;2022-11-13T05:25:07;5.10;99.90
38860;DHT22;24609;48.316;16.174;2022-11-13T05:27:33;5.00;99.90
38860;DHT22;24609;48.316;16.174;2022-11-13T05:29:59;5.00;99.90
38860;DHT22;24609;48.316;16.174;2022-11-13T05:32:24;5.00;99.90
38860;DHT22;24609;48.316;16.174;2022-11-13T05:34:50;5.10;99.90
38860;DHT22;24609;48.316;16.174;2022-11-13T05:37:16;5.30;99.90
38860;DHT22;24609;48.316;16.174;2022-11-13T05:39:41;5.20;99.90
38860;DHT22;24609;48.316;16.174;2022-11-13T05:42:07;5.20;99.90
38860;DHT22;24609;48.316;16.174;2022-11-13T05:44:33;5.30;99.90
38860;DHT22;24609;48.316;16.174;2022-11-13T05:46:58;5.40;99.90
38860;DHT22;24609;48.316;16.174;2022-11-13T05:49:24;5.60;99.90
38860;DHT22;24609;48.316;16.174;2022-11-13T05:51:49;5.70;99.90
38860;DHT22;24609;48.316;16.174;2022-11-13T05:54:15;5.70;99.90
38860;DHT22;24609;48.316;16.174;2022-11-13T05:56:41;5.70;99.90
38860;DHT22;24609;48.316;16.174;2022-11-13T05:59:07;5.70;99.90
38860;DHT22;24609;48.316;16.174;2022-11-13T06:01:35;5.80;99.90
38860;DHT22;24609;48.316;16.174;2022-11-13T06:04:02;5.90;99.90
38860;DHT22;24609;48.316;16.174;2022-11-13T06:06:29;5.90;99.90
38860;DHT22;24609;48.316;16.174;2022-11-13T06:08:57;6.00;99.90
38860;DHT22;24609;48.316;16.174;2022-11-13T06:11:25;5.90;99.90
38860;DHT22;24609;48.316;16.174;2022-11-13T06:13:51;5.90;99.90
38860;DHT22;24609;48.316;16.174;2022-11-13T06:16:23;5.90;99.90
38860;DHT22;24609;48.316;16.174;2022-11-13T06:18:52;5.90;99.90
38860;DHT22;24609;48.316;16.174;2022-11-13T06:21:20;5.80;99.90
38860;DHT22;24609;48.316;16.174;2022-11-13T06:23:47;5.80;99.90
38860;DHT22;24609;48.316;16.174;2022-11-13T06:26:15;5.80;99.90
38860;DHT22;24609;48.316;16.174;2022-11-13T06:28:42;5.90;99.90
38860;DHT22;24609;48.316;16.174;2022-11-13T06:31:11;5.90;99.90
38860;DHT22;24609;48.316;16.174;2022-11-13T06:33:37;5.90;99.90
38860;DHT22;24609;48.316;16.174;2022-11-13T06:36:05;5.90;99.90
38860;DHT22;24609;48.316;16.174;2022-11-13T06:38:34;5.90;99.90
38860;DHT22;24609;48.316;16.174;2022-11-13T06:41:00;6.10;99.90
38860;DHT22;24609;48.316;16.174;2022-11-13T06:43:27;6.20;99.90
38860;DHT22;24609;48.316;16.174;2022-11-13T06:45:53;6.30;99.90
38860;DHT22;24609;48.316;16.174;2022-11-13T06:48:19;6.40;99.90
38860;DHT22;24609;48.316;16.174;2022-11-13T06:50:45;6.40;99.90
38860;DHT22;24609;48.316;16.174;2022-11-13T06:53:11;6.40;99.90
38860;DHT22;24609;48.316;16.174;2022-11-13T06:55:45;6.40;99.90
38860;DHT22;24609;48.316;16.174;2022-11-13T06:58:11;6.50;99.90
38860;DHT22;24609;48.316;16.174;2022-11-13T07:00:37;6.60;99.90
38860;DHT22;24609;48.316;16.174;2022-11-13T07:03:03;6.80;99.90
38860;DHT22;24609;48.316;16.174;2022-11-13T07:05:28;6.90;99.90
38860;DHT22;24609;48.316;16.174;2022-11-13T07:07:54;6.80;99.90
38860;DHT22;24609;48.316;16.174;2022-11-13T07:10:20;6.90;99.90
38860;DHT22;24609;48.316;16.174;2022-11-13T07:12:45;7.00;99.90
38860;DHT22;24609;48.316;16.174;2022-11-13T07:15:11;7.20;99.90
38860;DHT22;24609;48.316;16.174;2022-11-13T07:17:37;7.20;99.90
38860;DHT22;24609;48.316;16.174;2022-11-13T07:20:02;7.10;99.90
38860;DHT22;24609;48.316;16.174;2022-11-13T07:22:29;7.00;99.90
38860;DHT22;24609;48.316;16.174;2022-11-13T07:24:55;7.00;99.90
38860;DHT22;24609;48.316;16.174;2022-11-13T07:27:21;7.00;99.90
38860;DHT22;24609;48.316;16.174;2022-11-13T07:29:47;7.00;99.90
38860;DHT22;24609;48.316;16.174;2022-11-13T07:32:12;7.00;99.90
38860;DHT22;24609;48.316;16.174;2022-11-13T07:34:38;7.30;99.90
38860;DHT22;24609;48.316;16.174;2022-11-13T07:37:04;7.30;99.90
38860;DHT22;24609;48.316;16.174;2022-11-13T07:39:31;7.50;99.90
38860;DHT22;24609;48.316;16.174;2022-11-13T07:41:57;8.00;99.90
38860;DHT22;24609;48.316;16.174;2022-11-13T07:44:22;8.20;99.90
38860;DHT22;24609;48.316;16.174;2022-11-13T07:46:48;8.20;99.90
38860;DHT22;24609;48.316;16.174;2022-11-13T07:49:14;8.40;99.90
38860;DHT22;24609;48.316;16.174;2022-11-13T07:51:39;8.40;99.90
38860;DHT22;24609;48.316;16.174;2022-11-13T07:54:05;8.70;99.90
38860;DHT22;24609;48.316;16.174;2022-11-13T07:56:31;9.00;99.90
38860;DHT22;24609;48.316;16.174;2022-11-13T07:58:56;9.30;99.90
38860;DHT22;24609;48.316;16.174;2022-11-13T08:01:22;9.60;99.90
38860;DHT22;24609;48.316;16.174;2022-11-13T08:03:48;9.80;99.90
38860;DHT22;24609;48.316;16.174;2022-11-13T08:06:14;10.10;99.90
38860;DHT22;24609;48.316;16.174;2022-11-13T08:08:39;10.30;99.90
38860;DHT22;24609;48.316;16.174;2022-11-13T08:11:07;10.40;99.90
38860;DHT22;24609;48.316;16.174;2022-11-13T08:13:34;10.40;99.90
38860;DHT22;24609;48.316;16.174;2022-11-13T08:16:01;10.40;99.90
38860;DHT22;24609;48.316;16.174;2022-11-13T08:18:30;10.60;99.90
38860;DHT22;24609;48.316;16.174;2022-11-13T08:20:56;10.80;99.90
38860;DHT22;24609;48.316;16.174;2022-11-13T08:23:22;10.90;99.90
38860;DHT22;24609;48.316;16.174;2022-11-13T08:25:48;10.80;99.90
38860;DHT22;24609;48.316;16.174;2022-11-13T08:28:13;10.90;99.90
38860;DHT22;24609;48.316;16.174;2022-11-13T08:30:42;11.10;99.90
38860;DHT22;24609;48.316;16.174;2022-11-13T08:33:08;11.30;99.90
38860;DHT22;24609;48.316;16.174;2022-11-13T08:35:33;11.60;99.90
38860;DHT22;24609;48.316;16.174;2022-11-13T08:38:06;11.40;99.90
38860;DHT22;24609;48.316;16.174;2022-11-13T08:40:32;10.90;99.90
38860;DHT22;24609;48.316;16.174;2022-11-13T08:42:59;11.00;99.90
38860;DHT22;24609;48.316;16.174;2022-11-13T08:45:26;11.60;99.90
38860;DHT22;24609;48.316;16.174;2022-11-13T08:47:52;12.00;99.90
38860;DHT22;24609;48.316;16.174;2022-11-13T08:50:18;12.00;99.90
38860;DHT22;24609;48.316;16.174;2022-11-13T08:52:44;11.70;99.90
38860;DHT22;24609;48.316;16.174;2022-11-13T08:55:09;11.40;99.90
38860;DHT22;24609;48.316;16.174;2022-11-13T08:57:35;11.30;99.90
38860;DHT22;24609;48.316;16.174;2022-11-13T09:00:01;10.90;99.90
38860;DHT22;24609;48.316;16.174;2022-11-13T09:02:26;11.30;99.90
38860;DHT22;24609;48.316;16.174;2022-11-13T09:04:52;11.60;99.90
38860;DHT22;24609;48.316;16.174;2022-11-13T09:07:18;11.50;99.90
38860;DHT22;24609;48.316;16.174;2022-11-13T09:09:44;11.90;1.00
38860;DHT22;24609;48.316;16.174;2022-11-13T09:12:09;12.30;1.00
38860;DHT22;24609;48.316;16.174;2022-11-13T09:14:35;12.70;99.90
38860;DHT22;24609;48.316;16.174;2022-11-13T09:17:02;13.40;99.90
38860;DHT22;24609;48.316;16.174;2022-11-13T09:19:27;14.90;99.90
38860;DHT22;24609;48.316;16.174;2022-11-13T09:21:53;14.70;99.90
38860;DHT22;24609;48.316;16.174;2022-11-13T09:24:19;16.10;99.90
38860;DHT22;24609;48.316;16.174;2022-11-13T09:26:45;15.80;99.90
38860;DHT22;24609;48.316;16.174;2022-11-13T09:29:10;15.50;99.90
38860;DHT22;24609;48.316;16.174;2022-11-13T09:31:36;15.60;99.90
38860;DHT22;24609;48.316;16.174;2022-11-13T09:34:06;15.60;99.90
38860;DHT22;24609;48.316;16.174;2022-11-13T09:36:31;15.30;99.90
38860;DHT22;24609;48.316;16.174;2022-11-13T09:38:57;15.90;99.90
38860;DHT22;24609;48.316;16.174;2022-11-13T09:41:28;15.90;99.90
38860;DHT22;24609;48.316;16.174;2022-11-13T09:44:00;16.20;99.90
38860;DHT22;24609;48.316;16.174;2022-11-13T09:49:24;14.90;99.90
38860;DHT22;24609;48.316;16.174;2022-11-13T09:51:53;16.20;99.90
38860;DHT22;24609;48.316;16.174;2022-11-13T09:54:20;15.90;99.90
38860;DHT22;24609;48.316;16.174;2022-11-13T09:59:50;16.50;99.90
38860;DHT22;24609;48.316;16.174;2022-11-13T10:02:45;16.10;99.90
38860;DHT22;24609;48.316;16.174;2022-11-13T10:05:39;16.10;99.90
38860;DHT22;24609;48.316;16.174;2022-11-13T10:08:42;15.90;99.90
38860;DHT22;24609;48.316;16.174;2022-11-13T10:14:03;15.00;99.90
38860;DHT22;24609;48.316;16.174;2022-11-13T10:16:35;16.10;99.90
38860;DHT22;24609;48.316;16.174;2022-11-13T10:19:26;15.60;99.90
38860;DHT22;24609;48.316;16.174;2022-11-13T10:22:15;16.00;99.90
38860;DHT22;24609;48.316;16.174;2022-11-13T10:24:44;16.70;99.90
38860;DHT22;24609;48.316;16.174;2022-11-13T10:27:11;18.60;99.90
38860;DHT22;24609;48.316;16.174;2022-11-13T10:29:38;18.70;98.00
38860;DHT22;24609;48.316;16.174;2022-11-13T10:32:20;17.60;98.80
38860;DHT22;24609;48.316;16.174;2022-11-13T10:34:49;16.60;99.90
38860;DHT22;24609;48.316;16.174;2022-11-13T10:37:28;17.50;99.40
38860;DHT22;24609;48.316;16.174;2022-11-13T10:39:55;18.60;97.50
38860;DHT22;24609;48.316;16.174;2022-11-13T10:42:23;20.30;95.40
38860;DHT22;24609;48.316;16.174;2022-11-13T10:44:54;20.00;93.20
38860;DHT22;24609;48.316;16.174;2022-11-13T10:47:22;19.00;93.90
38860;DHT22;24609;48.316;16.174;2022-11-13T10:49:48;19.90;94.10
38860;DHT22;24609;48.316;16.174;2022-11-13T10:52:27;19.50;93.40
38860;DHT22;24609;48.316;16.174;2022-11-13T10:55:15;21.70;88.20
38860;DHT22;24609;48.316;16.174;2022-11-13T10:57:42;20.50;91.30
38860;DHT22;24609;48.316;16.174;2022-11-13T11:00:29;19.60;90.90
38860;DHT22;24609;48.316;16.174;2022-11-13T11:02:55;19.80;90.40
38860;DHT22;24609;48.316;16.174;2022-11-13T11:05:22;19.00;91.20
38860;DHT22;24609;48.316;16.174;2022-11-13T11:07:49;18.70;92.90
38860;DHT22;24609;48.316;16.174;2022-11-13T11:10:35;17.70;93.30
38860;DHT22;24609;48.316;16.174;2022-11-13T11:13:22;18.50;92.40
38860;DHT22;24609;48.316;16.174;2022-11-13T11:15:53;17.30;94.20
38860;DHT22;24609;48.316;16.174;2022-11-13T11:18:34;16.60;95.80
38860;DHT22;24609;48.316;16.174;2022-11-13T11:21:06;16.90;95.40
38860;DHT22;24609;48.316;16.174;2022-11-13T11:23:51;18.20;94.00
38860;DHT22;24609;48.316;16.174;2022-11-13T11:29:32;14.00;99.90
38860;DHT22;24609;48.316;16.174;2022-11-13T11:34:37;12.40;99.90
38860;DHT22;24609;48.316;16.174;2022-11-13T11:37:12;12.40;99.90
38860;DHT22;24609;48.316;16.174;2022-11-13T11:42:50;12.30;99.90
38860;DHT22;24609;48.316;16.174;2022-11-13T11:45:43;12.20;99.90
38860;DHT22;24609;48.316;16.174;2022-11-13T11:48:21;12.40;99.90
38860;DHT22;24609;48.316;16.174;2022-11-13T11:57:15;12.20;99.90
38860;DHT22;24609;48.316;16.174;2022-11-13T11:59:41;12.10;99.90
38860;DHT22;24609;48.316;16.174;2022-11-13T12:02:50;12.10;99.90
38860;DHT22;24609;48.316;16.174;2022-11-13T12:05:46;12.30;99.90
38860;DHT22;24609;48.316;16.174;2022-11-13T12:22:16;12.30;99.90
38860;DHT22;24609;48.316;16.174;2022-11-13T12:27:19;12.30;99.90
38860;DHT22;24609;48.316;16.174;2022-11-13T12:30:06;12.30;99.90
38860;DHT22;24609;48.316;16.174;2022-11-13T12:35:19;12.20;99.90
38860;DHT22;24609;48.316;16.174;2022-11-13T12:43:46;12.30;99.90
38860;DHT22;24609;48.316;16.174;2022-11-13T12:46:16;12.30;99.90
38860;DHT22;24609;48.316;16.174;2022-11-13T12:48:46;12.30;99.90
38860;DHT22;24609;48.316;16.174;2022-11-13T12:51:17;12.30;99.90
38860;DHT22;24609;48.316;16.174;2022-11-13T12:56:16;12.30;99.90
38860;DHT22;24609;48.316;16.174;2022-11-13T12:58:55;12.30;99.90
38860;DHT22;24609;48.316;16.174;2022-11-13T13:01:22;12.20;99.90
38860;DHT22;24609;48.316;16.174;2022-11-13T13:14:57;12.20;99.90
38860;DHT22;24609;48.316;16.174;2022-11-13T13:17:25;12.10;99.90
38860;DHT22;24609;48.316;16.174;2022-11-13T13:22:39;12.10;99.90
38860;DHT22;24609;48.316;16.174;2022-11-13T13:25:29;12.00;99.90
38860;DHT22;24609;48.316;16.174;2022-11-13T13:28:00;12.00;99.90
38860;DHT22;24609;48.316;16.174;2022-11-13T13:30:27;12.00;99.90
38860;DHT22;24609;48.316;16.174;2022-11-13T13:33:10;12.10;99.90
38860;DHT22;24609;48.316;16.174;2022-11-13T13:35:48;12.10;99.90
38860;DHT22;24609;48.316;16.174;2022-11-13T13:38:35;12.10;99.90
38860;DHT22;24609;48.316;16.174;2022-11-13T13:43:54;12.00;99.90
38860;DHT22;24609;48.316;16.174;2022-11-13T13:46:24;12.00;99.90
38860;DHT22;24609;48.316;16.174;2022-11-13T13:48:54;12.00;99.90
38860;DHT22;24609;48.316;16.174;2022-11-13T13:51:41;12.00;99.90
38860;DHT22;24609;48.316;16.174;2022-11-13T13:54:08;12.00;99.90
38860;DHT22;24609;48.316;16.174;2022-11-13T13:56:40;11.90;99.90
38860;DHT22;24609;48.316;16.174;2022-11-13T13:59:20;11.90;99.90
38860;DHT22;24609;48.316;16.174;2022-11-13T14:01:58;11.90;99.90
38860;DHT22;24609;48.316;16.174;2022-11-13T14:04:26;11.80;99.90
38860;DHT22;24609;48.316;16.174;2022-11-13T14:06:57;11.80;99.90
38860;DHT22;24609;48.316;16.174;2022-11-13T14:09:25;11.70;99.90
38860;DHT22;24609;48.316;16.174;2022-11-13T14:12:19;11.60;99.90
38860;DHT22;24609;48.316;16.174;2022-11-13T14:14:46;11.60;99.90
38860;DHT22;24609;48.316;16.174;2022-11-13T14:17:11;11.60;99.90
38860;DHT22;24609;48.316;16.174;2022-11-13T14:19:53;11.50;99.90
38860;DHT22;24609;48.316;16.174;2022-11-13T14:22:19;11.40;99.90
38860;DHT22;24609;48.316;16.174;2022-11-13T14:24:57;11.30;99.90
38860;DHT22;24609;48.316;16.174;2022-11-13T14:27:25;11.20;99.90
38860;DHT22;24609;48.316;16.174;2022-11-13T14:29:56;11.20;99.90
38860;DHT22;24609;48.316;16.174;2022-11-13T14:32:28;11.00;99.90
38860;DHT22;24609;48.316;16.174;2022-11-13T14:34:58;11.00;99.90
38860;DHT22;24609;48.316;16.174;2022-11-13T14:37:38;11.00;99.90
38860;DHT22;24609;48.316;16.174;2022-11-13T14:40:24;10.80;99.90
38860;DHT22;24609;48.316;16.174;2022-11-13T14:43:00;10.80;99.90
38860;DHT22;24609;48.316;16.174;2022-11-13T14:45:29;10.70;99.90
38860;DHT22;24609;48.316;16.174;2022-11-13T14:48:23;10.60;99.90
38860;DHT22;24609;48.316;16.174;2022-11-13T14:53:54;10.50;99.90
38860;DHT22;24609;48.316;16.174;2022-11-13T14:56:30;10.40;99.90
38860;DHT22;24609;48.316;16.174;2022-11-13T14:59:12;10.50;99.90
38860;DHT22;24609;48.316;16.174;2022-11-13T15:01:39;10.30;99.90
38860;DHT22;24609;48.316;16.174;2022-11-13T15:04:05;10.10;99.90
38860;DHT22;24609;48.316;16.174;2022-11-13T15:06:37;9.90;99.90
38860;DHT22;24609;48.316;16.174;2022-11-13T15:09:05;10.00;99.90
38860;DHT22;24609;48.316;16.174;2022-11-13T15:11:34;9.90;99.90
38860;DHT22;24609;48.316;16.174;2022-11-13T15:14:12;9.80;99.90
38860;DHT22;24609;48.316;16.174;2022-11-13T15:16:39;9.90;99.90
38860;DHT22;24609;48.316;16.174;2022-11-13T15:19:16;9.70;99.90
38860;DHT22;24609;48.316;16.174;2022-11-13T15:21:45;9.80;99.90
38860;DHT22;24609;48.316;16.174;2022-11-13T15:24:11;9.80;99.90
38860;DHT22;24609;48.316;16.174;2022-11-13T15:26:38;9.70;99.90
38860;DHT22;24609;48.316;16.174;2022-11-13T15:29:05;9.50;99.90
38860;DHT22;24609;48.316;16.174;2022-11-13T15:31:33;9.50;99.90
38860;DHT22;24609;48.316;16.174;2022-11-13T15:33:59;9.30;99.90
38860;DHT22;24609;48.316;16.174;2022-11-13T15:36:25;9.20;99.90
38860;DHT22;24609;48.316;16.174;2022-11-13T15:38:51;9.00;99.90
38860;DHT22;24609;48.316;16.174;2022-11-13T15:41:21;8.90;99.90
38860;DHT22;24609;48.316;16.174;2022-11-13T15:43:50;8.80;99.90
38860;DHT22;24609;48.316;16.174;2022-11-13T15:46:18;8.70;99.90
38860;DHT22;24609;48.316;16.174;2022-11-13T15:48:44;8.60;99.90
38860;DHT22;24609;48.316;16.174;2022-11-13T15:51:22;8.60;99.90
38860;DHT22;24609;48.316;16.174;2022-11-13T15:53:54;8.50;99.90
38860;DHT22;24609;48.316;16.174;2022-11-13T15:56:22;8.30;99.90
38860;DHT22;24609;48.316;16.174;2022-11-13T15:58:49;8.40;99.90
38860;DHT22;24609;48.316;16.174;2022-11-13T16:01:15;8.50;99.90
38860;DHT22;24609;48.316;16.174;2022-11-13T16:03:41;8.50;99.90
38860;DHT22;24609;48.316;16.174;2022-11-13T16:06:21;8.50;99.90
38860;DHT22;24609;48.316;16.174;2022-11-13T16:08:48;8.50;99.90
38860;DHT22;24609;48.316;16.174;2022-11-13T16:11:18;8.50;99.90
38860;DHT22;24609;48.316;16.174;2022-11-13T16:13:45;8.50;99.90
38860;DHT22;24609;48.316;16.174;2022-11-13T16:16:33;8.50;99.90
38860;DHT22;24609;48.316;16.174;2022-11-13T16:19:00;8.50;99.90
38860;DHT22;24609;48.316;16.174;2022-11-13T16:21:26;8.50;99.90
38860;DHT22;24609;48.316;16.174;2022-11-13T16:23:52;8.50;99.90
38860;DHT22;24609;48.316;16.174;2022-11-13T16:26:20;8.50;99.90
38860;DHT22;24609;48.316;16.174;2022-11-13T16:28:47;8.50;99.90
38860;DHT22;24609;48.316;16.174;2022-11-13T16:31:14;8.40;99.90
38860;DHT22;24609;48.316;16.174;2022-11-13T16:33:40;8.50;99.90
38860;DHT22;24609;48.316;16.174;2022-11-13T16:36:18;8.50;99.90
38860;DHT22;24609;48.316;16.174;2022-11-13T16:38:45;8.40;99.90
38860;DHT22;24609;48.316;16.174;2022-11-13T16:41:15;8.40;99.90
38860;DHT22;24609;48.316;16.174;2022-11-13T16:43:44;8.40;99.90
38860;DHT22;24609;48.316;16.174;2022-11-13T16:46:34;8.40;99.90
38860;DHT22;24609;48.316;16.174;2022-11-13T16:49:00;8.40;99.90